createdAt,value
2022-12-25T14:40:59.490Z,100260.75
2022-12-25T14:43:30.620Z,100264.47
2022-12-25T14:45:59.979Z,100276.50
2022-12-25T14:48:30.635Z,100274.25
2022-12-25T14:51:00.987Z,100272.78
2022-12-25T14:53:35.607Z,100277.38
2022-12-25T14:56:05.263Z,100278.97
2022-12-25T14:58:35.990Z,100279.16
2022-12-25T15:01:05.973Z,100291.16
2022-12-25T15:03:37.418Z,100290.28
2022-12-25T15:06:07.220Z,100289.91
2022-12-25T15:08:35.991Z,100284.09
2022-12-25T15:11:05.618Z,100262.69
2022-12-25T15:13:34.100Z,100269.56
2022-12-25T15:16:05.118Z,100272.59
2022-12-25T15:18:38.439Z,100279.59
2022-12-25T15:21:06.872Z,100274.66
2022-12-25T15:23:35.135Z,100279.50
2022-12-25T15:26:03.037Z,100266.94
2022-12-25T15:28:32.722Z,100250.69
2022-12-25T15:31:00.881Z,100254.22
2022-12-25T15:33:29.080Z,100246.28
2022-12-25T15:35:57.089Z,100236.16
2022-12-25T15:38:25.407Z,100250.50
2022-12-25T15:40:53.484Z,100250.28
2022-12-25T15:43:39.822Z,100259.31
2022-12-25T15:46:11.121Z,100261.50
2022-12-25T15:48:39.394Z,100260.78
2022-12-25T15:51:07.305Z,100271.72
2022-12-25T15:53:35.559Z,100259.72
2022-12-25T15:56:03.469Z,100277.56
2022-12-25T15:58:31.665Z,100277.56
2022-12-25T16:00:59.626Z,100289.81
2022-12-25T16:03:29.186Z,100305.78
2022-12-25T16:05:57.271Z,100312.72
2022-12-25T16:08:25.567Z,100303.66
2022-12-25T16:10:53.900Z,100307.06
2022-12-25T16:13:23.254Z,100308.41
2022-12-25T16:15:51.311Z,100309.47
2022-12-25T16:18:19.650Z,100296.13
2022-12-25T16:20:48.991Z,100300.94
2022-12-25T16:23:17.224Z,100304.91
2022-12-25T16:25:45.356Z,100303.50
2022-12-25T16:28:13.651Z,100287.00
2022-12-25T16:30:41.926Z,100298.19
2022-12-25T16:33:11.133Z,100284.94
2022-12-25T16:35:39.099Z,100272.72
2022-12-25T16:38:08.656Z,100261.56
2022-12-25T16:40:36.596Z,100255.44
2022-12-25T16:43:04.783Z,100242.16
2022-12-25T16:45:32.711Z,100249.34
2022-12-25T16:48:00.893Z,100254.13
2022-12-25T16:50:28.780Z,100280.19
2022-12-25T16:52:56.995Z,100294.03
2022-12-25T16:55:30.007Z,100289.78
2022-12-25T16:57:58.578Z,100279.69
2022-12-25T17:00:26.819Z,100290.84
2022-12-25T17:02:55.904Z,100283.94
2022-12-25T17:05:24.538Z,100298.28
2022-12-25T17:07:52.794Z,100287.19
2022-12-25T17:10:22.860Z,100295.13
2022-12-25T17:12:52.380Z,100303.16
2022-12-25T17:15:20.409Z,100314.31
2022-12-25T17:17:48.571Z,100306.84
2022-12-25T17:20:16.540Z,100319.31
2022-12-25T17:22:44.715Z,100316.91
2022-12-25T17:25:12.640Z,100313.19
2022-12-25T17:27:41.097Z,100314.78
2022-12-25T17:30:11.680Z,100319.03
2022-12-25T17:32:39.920Z,100319.59
2022-12-25T17:35:08.620Z,100306.28
2022-12-25T17:37:36.884Z,100290.31
2022-12-25T17:40:05.400Z,100294.03
2022-12-25T17:42:34.020Z,100297.75
2022-12-25T17:45:01.940Z,100289.78
2022-12-25T17:47:32.078Z,100295.09
2022-12-25T17:50:00.179Z,100291.34
2022-12-25T17:52:28.356Z,100292.97
2022-12-25T17:54:56.323Z,100297.47
2022-12-25T17:57:24.524Z,100287.91
2022-12-25T17:59:52.671Z,100290.03
2022-12-25T18:02:21.018Z,100271.13
2022-12-25T18:04:50.666Z,100283.13
2022-12-25T18:07:18.950Z,100298.00
2022-12-25T18:09:46.916Z,100304.09
2022-12-25T18:12:15.104Z,100307.81
2022-12-25T18:14:43.028Z,100307.28
2022-12-25T18:17:11.367Z,100310.97
2022-12-25T18:19:39.322Z,100306.97
2022-12-25T18:22:09.015Z,100313.59
2022-12-25T18:24:36.920Z,100308.28
2022-12-25T18:27:05.260Z,100306.69
2022-12-25T18:29:33.219Z,100314.13
2022-12-25T18:32:01.526Z,100308.28
2022-12-25T18:34:29.529Z,100307.25
2022-12-25T18:37:03.260Z,100310.13
2022-12-25T18:39:33.819Z,100309.84
2022-12-25T18:42:19.692Z,100299.22
2022-12-25T18:44:47.709Z,100311.44
2022-12-25T18:47:15.840Z,100314.59
2022-12-25T18:49:43.760Z,100315.63
2022-12-25T18:52:48.670Z,100319.13
2022-12-25T18:55:01.247Z,100319.13
2022-12-25T18:57:31.928Z,100317.75
2022-12-25T18:59:59.991Z,100319.63
2022-12-25T19:02:28.701Z,100316.44
2022-12-25T19:04:57.166Z,100321.50
2022-12-25T19:07:25.298Z,100327.88
2022-12-25T19:09:53.838Z,100316.97
2022-12-25T19:12:23.393Z,100316.19
2022-12-25T19:14:51.459Z,100325.19
2022-12-25T19:17:19.759Z,100331.72
2022-12-25T19:19:47.897Z,100327.22
2022-12-25T19:22:16.163Z,100311.50
2022-12-25T19:24:44.369Z,100303.34
2022-12-25T19:27:12.598Z,100294.63
2022-12-25T19:29:41.825Z,100299.38
2022-12-25T19:32:10.128Z,100305.44
2022-12-25T19:34:38.217Z,100289.53
2022-12-25T19:37:07.319Z,100302.78
2022-12-25T19:39:35.320Z,100296.91
2022-12-25T19:42:03.540Z,100304.88
2022-12-25T19:44:31.458Z,100302.75
2022-12-25T19:47:00.971Z,100307.00
2022-12-25T19:49:28.918Z,100303.56
2022-12-25T19:51:57.125Z,100298.44
2022-12-25T19:54:25.130Z,100288.03
2022-12-25T19:56:53.407Z,100298.94
2022-12-25T19:59:21.364Z,100288.91
2022-12-25T20:01:49.888Z,100293.41
2022-12-25T20:04:19.417Z,100287.06
2022-12-25T20:06:47.653Z,100292.88
2022-12-25T20:09:20.788Z,100315.97
2022-12-25T20:11:49.876Z,100326.13
2022-12-25T20:14:18.067Z,100324.53
2022-12-25T20:16:46.332Z,100334.13
2022-12-25T20:19:14.882Z,100321.97
2022-12-25T20:21:44.464Z,100327.84
2022-12-25T20:24:12.455Z,100319.13
2022-12-25T20:26:41.954Z,100322.59
2022-12-25T20:29:20.694Z,100325.28
2022-12-25T20:32:02.946Z,100314.41
2022-12-25T20:34:43.532Z,100312.53
2022-12-25T20:37:25.113Z,100315.19
2022-12-25T20:39:56.407Z,100317.31
2022-12-25T20:42:24.776Z,100329.03
2022-12-25T20:44:52.746Z,100331.72
2022-12-25T20:47:20.902Z,100345.50
2022-12-25T20:49:49.019Z,100357.19
2022-12-25T20:52:17.237Z,100355.09
2022-12-25T20:54:47.582Z,100353.47
2022-12-25T20:57:15.789Z,100359.81
2022-12-25T20:59:44.184Z,100348.66
2022-12-25T21:02:34.179Z,100363.53
2022-12-25T21:05:01.126Z,100362.97
2022-12-25T21:07:29.392Z,100364.31
2022-12-25T21:09:59.239Z,100364.56
2022-12-25T21:12:27.453Z,100367.44
2022-12-25T21:14:55.465Z,100385.81
2022-12-25T21:17:23.815Z,100376.22
2022-12-25T21:19:52.203Z,100381.97
2022-12-25T21:22:20.755Z,100381.47
2022-12-25T21:24:52.046Z,100376.44
2022-12-25T21:27:22.373Z,100368.78
2022-12-25T21:29:50.673Z,100392.66
2022-12-25T21:32:36.784Z,100376.22
2022-12-25T21:35:05.279Z,100369.28
2022-12-25T21:37:34.797Z,100376.22
2022-12-25T21:40:03.172Z,100370.91
2022-12-25T21:42:32.946Z,100375.91
2022-12-25T21:45:00.891Z,100377.31
2022-12-25T21:48:02.295Z,100378.38
2022-12-25T21:50:39.257Z,100369.13
2022-12-25T21:53:08.382Z,100371.53
2022-12-25T21:55:36.325Z,100377.91
2022-12-25T21:58:06.113Z,100385.81
2022-12-25T22:00:34.072Z,100397.75
2022-12-25T22:03:02.330Z,100401.25
2022-12-25T22:05:49.182Z,100398.03
2022-12-25T22:08:17.966Z,100406.56
2022-12-25T22:10:45.932Z,100402.84
2022-12-25T22:13:33.362Z,100402.84
2022-12-25T22:16:21.949Z,100407.13
2022-12-25T22:19:07.950Z,100420.41
2022-12-25T22:21:36.078Z,100416.19
2022-12-25T22:24:08.096Z,100417.78
2022-12-25T22:26:36.678Z,100421.81
2022-12-25T22:29:06.252Z,100423.69
2022-12-25T22:31:34.237Z,100418.38
2022-12-25T22:34:02.496Z,100424.19
2022-12-25T22:36:30.541Z,100414.59
2022-12-25T22:38:58.768Z,100429.97
2022-12-25T22:41:31.507Z,100426.78
2022-12-25T22:44:18.240Z,100437.66
2022-12-25T22:46:47.980Z,100435.81
2022-12-25T22:49:16.436Z,100433.19
2022-12-25T22:51:44.463Z,100420.94
2022-12-25T22:54:13.864Z,100433.72
2022-12-25T22:56:42.009Z,100426.31
2022-12-25T22:59:10.553Z,100430.78
2022-12-25T23:01:39.000Z,100426.59
2022-12-25T23:04:08.781Z,100432.22
2022-12-25T23:06:37.045Z,100441.28
2022-12-25T23:09:06.140Z,100437.00
2022-12-25T23:11:34.637Z,100455.06
2022-12-25T23:14:22.293Z,100454.00
2022-12-25T23:16:50.315Z,100447.06
2022-12-25T23:19:37.323Z,100443.34
2022-12-25T23:22:23.167Z,100454.81
2022-12-25T23:25:08.771Z,100451.84
2022-12-25T23:27:36.716Z,100456.59
2022-12-25T23:30:05.592Z,100456.03
2022-12-25T23:32:33.539Z,100455.53
2022-12-25T23:35:03.272Z,100451.25
2022-12-25T23:37:31.430Z,100448.03
2022-12-25T23:40:00.029Z,100446.94
2022-12-25T23:42:27.963Z,100453.28
2022-12-25T23:44:56.115Z,100452.72
2022-12-25T23:47:24.030Z,100445.06
2022-12-25T23:49:52.295Z,100435.75
2022-12-25T23:52:21.654Z,100436.53
2022-12-25T23:54:49.797Z,100431.50
2022-12-25T23:57:17.754Z,100435.72
2022-12-25T23:59:46.167Z,100439.78
